createdAt,value
2023-02-02T00:01:13.452Z,7.23
2023-02-02T00:03:40.253Z,7.09
2023-02-02T00:06:07.053Z,7.34
2023-02-02T00:08:35.932Z,7.62
2023-02-02T00:11:02.469Z,7.79
2023-02-02T00:13:28.928Z,7.39
2023-02-02T00:15:55.757Z,7.10
2023-02-02T00:18:22.235Z,7.53
2023-02-02T00:20:50.136Z,7.65
2023-02-02T00:23:17.396Z,7.70
2023-02-02T00:25:43.911Z,7.31
2023-02-02T00:28:10.668Z,7.24
2023-02-02T00:30:37.217Z,7.36
2023-02-02T00:33:03.882Z,7.18
2023-02-02T00:35:30.553Z,7.37
2023-02-02T00:37:57.032Z,7.05
2023-02-02T00:40:24.914Z,7.68
2023-02-02T00:42:51.556Z,7.30
2023-02-02T00:45:18.493Z,7.49
2023-02-02T00:47:47.154Z,7.23
2023-02-02T00:50:19.273Z,7.50
2023-02-02T00:52:47.124Z,7.58
2023-02-02T00:55:14.456Z,7.34
2023-02-02T00:57:41.328Z,7.52
2023-02-02T01:00:09.347Z,8.27
2023-02-02T01:02:36.158Z,8.18
2023-02-02T01:05:03.125Z,7.88
2023-02-02T01:07:29.756Z,7.95
2023-02-02T01:09:56.309Z,8.11
2023-02-02T01:12:22.919Z,7.70
2023-02-02T01:14:49.388Z,7.80
2023-02-02T01:17:15.903Z,7.71
2023-02-02T01:19:42.718Z,7.63
2023-02-02T01:22:09.868Z,7.60
2023-02-02T01:24:36.346Z,7.47
2023-02-02T01:27:02.855Z,7.47
2023-02-02T01:29:29.360Z,7.30
2023-02-02T01:31:55.854Z,7.55
2023-02-02T01:34:22.441Z,7.81
2023-02-02T01:36:49.047Z,7.61
2023-02-02T01:39:15.518Z,7.24
2023-02-02T01:41:42.286Z,7.17
2023-02-02T01:44:46.465Z,7.58
2023-02-02T01:47:13.457Z,7.84
2023-02-02T01:49:40.569Z,7.78
2023-02-02T01:52:10.005Z,7.41
2023-02-02T01:54:45.315Z,8.15
2023-02-02T01:57:42.442Z,7.50
2023-02-02T02:00:13.249Z,7.89
2023-02-02T02:02:40.446Z,8.09
2023-02-02T02:05:08.147Z,7.97
2023-02-02T02:07:34.859Z,7.64
2023-02-02T02:10:01.396Z,8.08
2023-02-02T02:12:27.833Z,7.63
2023-02-02T02:15:13.046Z,7.88
2023-02-02T02:18:04.521Z,7.78
2023-02-02T02:21:23.982Z,7.54
2023-02-02T02:24:53.801Z,7.51
2023-02-02T02:27:34.526Z,7.34
2023-02-02T02:30:09.950Z,8.18
2023-02-02T02:32:42.556Z,7.74
2023-02-02T02:35:17.109Z,7.96
2023-02-02T02:38:20.875Z,7.42
2023-02-02T02:41:09.106Z,8.00
2023-02-02T02:43:41.594Z,7.94
2023-02-02T02:46:09.481Z,8.00
2023-02-02T02:48:36.033Z,7.86
2023-02-02T02:51:47.804Z,7.83
2023-02-02T02:54:31.594Z,8.24
2023-02-02T02:57:06.455Z,7.67
2023-02-02T02:59:45.031Z,8.54
2023-02-02T03:02:16.947Z,8.26
2023-02-02T03:05:03.767Z,8.23
2023-02-02T03:07:37.191Z,8.31
2023-02-02T03:10:05.666Z,8.01
2023-02-02T03:12:32.202Z,8.10
2023-02-02T03:14:58.769Z,7.85
2023-02-02T03:17:27.706Z,7.85
2023-02-02T03:19:54.156Z,8.33
2023-02-02T03:22:20.861Z,8.08
2023-02-02T03:24:47.404Z,8.06
2023-02-02T03:27:14.157Z,8.35
2023-02-02T03:29:43.059Z,8.66
2023-02-02T03:32:09.798Z,8.70
2023-02-02T03:34:36.828Z,8.43
2023-02-02T03:37:03.377Z,8.52
2023-02-02T03:39:29.959Z,8.22
2023-02-02T03:41:56.479Z,7.98
2023-02-02T03:44:22.986Z,8.21
2023-02-02T03:46:53.352Z,8.51
2023-02-02T03:49:20.020Z,8.45
2023-02-02T03:51:46.645Z,7.84
2023-02-02T03:54:13.826Z,7.90
2023-02-02T03:56:40.375Z,8.16
2023-02-02T03:59:06.926Z,8.09
2023-02-02T04:01:33.616Z,7.78
2023-02-02T04:04:00.199Z,8.20
2023-02-02T04:06:26.935Z,7.67
2023-02-02T04:08:53.483Z,7.89
2023-02-02T04:11:20.141Z,7.94
2023-02-02T04:13:46.652Z,7.75
2023-02-02T04:16:13.384Z,8.13
2023-02-02T04:18:40.379Z,7.69
2023-02-02T04:21:08.528Z,8.21
2023-02-02T04:23:35.113Z,7.71
2023-02-02T04:26:01.940Z,8.34
2023-02-02T04:28:28.778Z,7.77
2023-02-02T04:30:56.338Z,8.41
2023-02-02T04:33:27.105Z,8.27
2023-02-02T04:35:53.903Z,8.68
2023-02-02T04:38:20.519Z,8.45
2023-02-02T04:40:48.271Z,8.23
2023-02-02T04:43:15.279Z,8.23
2023-02-02T04:45:42.445Z,8.25
2023-02-02T04:48:09.740Z,8.37
2023-02-02T04:50:36.518Z,8.68
2023-02-02T04:53:04.153Z,8.41
2023-02-02T04:55:30.883Z,8.01
2023-02-02T04:57:57.442Z,7.86
2023-02-02T05:00:23.999Z,7.85
2023-02-02T05:02:50.581Z,8.32
2023-02-02T05:05:17.154Z,8.25
2023-02-02T05:07:43.720Z,8.56
2023-02-02T05:10:11.362Z,8.34
2023-02-02T05:12:37.936Z,8.43
2023-02-02T05:15:05.618Z,8.94
2023-02-02T05:17:32.978Z,8.78
2023-02-02T05:19:59.564Z,8.14
2023-02-02T05:22:26.914Z,8.13
2023-02-02T05:24:53.425Z,8.33
2023-02-02T05:27:20.818Z,8.61
2023-02-02T05:29:48.224Z,7.94
2023-02-02T05:32:14.729Z,8.75
2023-02-02T05:34:41.567Z,8.61
2023-02-02T05:37:08.205Z,8.29
2023-02-02T05:39:34.731Z,8.08
2023-02-02T05:42:01.333Z,8.13
2023-02-02T05:44:27.879Z,8.15
2023-02-02T05:46:54.606Z,8.07
2023-02-02T05:49:21.322Z,8.01
2023-02-02T05:51:49.566Z,8.47
2023-02-02T05:54:20.277Z,8.56
2023-02-02T05:56:51.819Z,8.05
2023-02-02T05:59:19.039Z,7.90
2023-02-02T06:01:46.408Z,8.10
2023-02-02T06:04:13.321Z,8.19
2023-02-02T06:06:40.465Z,7.97
2023-02-02T06:09:07.889Z,8.28
2023-02-02T06:11:35.102Z,8.69
2023-02-02T06:14:01.890Z,8.23
2023-02-02T06:16:28.537Z,8.31
2023-02-02T06:18:55.178Z,8.21
2023-02-02T06:21:24.441Z,8.06
2023-02-02T06:23:51.762Z,8.16
2023-02-02T06:26:19.015Z,8.45
2023-02-02T06:28:49.972Z,8.18
2023-02-02T06:31:19.268Z,8.64
2023-02-02T06:33:52.470Z,8.34
2023-02-02T06:36:18.994Z,8.20
2023-02-02T06:38:51.870Z,8.11
2023-02-02T06:41:20.345Z,8.04
2023-02-02T06:43:47.772Z,8.07
2023-02-02T06:46:14.650Z,8.21
2023-02-02T06:48:41.332Z,8.57
2023-02-02T06:51:08.490Z,8.59
2023-02-02T06:53:35.397Z,8.48
2023-02-02T06:56:04.816Z,8.24
2023-02-02T06:58:32.088Z,8.10
2023-02-02T07:01:07.364Z,8.57
2023-02-02T07:03:34.039Z,8.37
2023-02-02T07:06:13.822Z,8.45
2023-02-02T07:08:40.373Z,7.95
2023-02-02T07:11:12.016Z,8.32
2023-02-02T07:13:41.286Z,8.47
2023-02-02T07:16:12.926Z,8.55
2023-02-02T07:18:40.338Z,8.28
2023-02-02T07:21:06.981Z,8.42
2023-02-02T07:23:34.041Z,8.14
2023-02-02T07:26:02.377Z,8.10
2023-02-02T07:28:28.997Z,8.59
2023-02-02T07:30:55.674Z,8.24
2023-02-02T07:33:22.209Z,8.55
2023-02-02T07:35:48.751Z,8.69
2023-02-02T07:38:15.399Z,8.32
2023-02-02T07:40:42.031Z,8.40
2023-02-02T07:43:09.321Z,8.47
2023-02-02T07:45:36.363Z,8.65
2023-02-02T07:48:03.693Z,8.18
2023-02-02T07:50:31.142Z,8.32
2023-02-02T07:52:58.976Z,8.51
2023-02-02T07:55:25.544Z,8.69
2023-02-02T07:57:54.302Z,8.64
2023-02-02T08:00:21.609Z,8.30
2023-02-02T08:02:51.506Z,7.94
2023-02-02T08:05:18.000Z,8.51
2023-02-02T08:07:48.319Z,8.73
2023-02-02T08:10:15.241Z,8.28
2023-02-02T08:12:41.764Z,8.40
2023-02-02T08:15:08.886Z,8.32
2023-02-02T08:17:35.456Z,8.32
2023-02-02T08:20:01.910Z,8.41
2023-02-02T08:22:28.519Z,8.47
2023-02-02T08:24:55.037Z,8.43
2023-02-02T08:27:21.871Z,8.33
2023-02-02T08:29:48.413Z,8.33
2023-02-02T08:32:15.007Z,8.47
2023-02-02T08:34:41.575Z,8.43
2023-02-02T08:37:08.205Z,8.72
2023-02-02T08:39:35.065Z,8.63
2023-02-02T08:42:01.579Z,8.45
2023-02-02T08:44:42.886Z,8.53
2023-02-02T08:47:14.638Z,8.59
2023-02-02T08:49:42.437Z,8.72
2023-02-02T08:52:08.977Z,8.75
2023-02-02T08:54:35.785Z,8.87
2023-02-02T08:57:02.284Z,8.77
2023-02-02T08:59:28.774Z,8.50
2023-02-02T09:01:55.780Z,8.81
2023-02-02T09:04:22.359Z,8.64
2023-02-02T09:06:48.881Z,8.40
2023-02-02T09:09:16.361Z,7.92
2023-02-02T09:11:43.794Z,8.48
2023-02-02T09:14:12.520Z,8.84
2023-02-02T09:16:39.216Z,8.18
2023-02-02T09:19:06.321Z,8.69
2023-02-02T09:21:37.175Z,8.31
2023-02-02T09:24:12.414Z,8.80
2023-02-02T09:26:40.484Z,8.56
2023-02-02T09:29:08.520Z,8.47
2023-02-02T09:31:37.380Z,8.74
2023-02-02T09:34:05.733Z,8.54
2023-02-02T09:36:32.401Z,8.63
2023-02-02T09:38:59.346Z,8.96
2023-02-02T09:41:31.909Z,8.91
2023-02-02T09:44:16.564Z,8.55
2023-02-02T09:47:01.818Z,9.39
2023-02-02T09:49:55.201Z,9.01
2023-02-02T09:53:00.825Z,9.15
2023-02-02T09:55:35.634Z,8.61
2023-02-02T09:58:05.099Z,8.81
2023-02-02T10:00:34.609Z,8.55
2023-02-02T10:03:05.186Z,8.53
2023-02-02T10:05:44.000Z,8.90
2023-02-02T10:08:20.582Z,8.53
2023-02-02T10:10:55.847Z,8.66
2023-02-02T10:13:29.163Z,9.13
2023-02-02T10:16:11.213Z,9.35
2023-02-02T10:18:50.081Z,8.92
2023-02-02T10:21:35.557Z,9.00
2023-02-02T10:24:03.459Z,8.98
2023-02-02T10:26:43.920Z,9.21
2023-02-02T10:29:16.674Z,8.77
2023-02-02T10:32:09.741Z,8.76
2023-02-02T10:35:13.157Z,9.17
2023-02-02T10:37:58.532Z,8.84
2023-02-02T10:40:42.786Z,8.83
2023-02-02T10:43:34.221Z,9.05
2023-02-02T10:46:02.154Z,8.76
2023-02-02T10:48:35.833Z,8.88
2023-02-02T10:51:11.272Z,8.90
2023-02-02T10:53:37.956Z,9.06
2023-02-02T10:56:08.052Z,8.93
2023-02-02T10:58:41.343Z,8.61
2023-02-02T11:01:11.537Z,8.60
2023-02-02T11:03:40.121Z,9.16
2023-02-02T11:06:26.827Z,9.09
2023-02-02T11:08:58.170Z,8.96
2023-02-02T11:11:40.492Z,8.96
2023-02-02T11:14:10.273Z,8.79
2023-02-02T11:16:43.194Z,8.76
2023-02-02T11:19:22.651Z,8.92
2023-02-02T11:21:51.459Z,9.00
2023-02-02T11:24:23.576Z,9.02
2023-02-02T11:27:02.412Z,8.87
2023-02-02T11:29:32.607Z,9.01
2023-02-02T11:32:18.336Z,8.85
2023-02-02T11:34:44.910Z,9.11
2023-02-02T11:37:20.660Z,8.60
2023-02-02T11:39:47.669Z,8.72
2023-02-02T11:42:18.518Z,9.31
2023-02-02T11:44:54.986Z,9.07
2023-02-02T11:47:25.709Z,9.23
2023-02-02T11:49:54.366Z,8.91
2023-02-02T11:52:26.661Z,9.20
2023-02-02T11:54:57.397Z,8.78
2023-02-02T11:57:25.501Z,8.90
2023-02-02T12:00:16.576Z,8.81
2023-02-02T12:02:48.148Z,8.86
2023-02-02T12:05:20.950Z,9.16
2023-02-02T12:07:48.434Z,9.26
2023-02-02T12:10:20.016Z,8.97
2023-02-02T12:12:52.368Z,8.94
2023-02-02T12:15:23.835Z,9.08
2023-02-02T12:17:52.654Z,8.91
2023-02-02T12:20:31.641Z,9.18
2023-02-02T12:23:13.280Z,9.27
2023-02-02T12:25:59.191Z,9.31
2023-02-02T12:28:51.005Z,9.06
2023-02-02T12:31:36.822Z,9.15
2023-02-02T12:34:16.761Z,8.61
2023-02-02T12:37:03.497Z,9.16
2023-02-02T12:40:11.391Z,9.00
2023-02-02T12:43:15.725Z,8.75
2023-02-02T12:46:21.418Z,9.04
2023-02-02T12:49:12.310Z,9.24
2023-02-02T12:51:47.945Z,9.18
2023-02-02T12:54:45.859Z,9.04
2023-02-02T12:57:47.059Z,8.65
2023-02-02T13:00:38.446Z,8.92
2023-02-02T13:03:36.279Z,8.86
2023-02-02T13:06:21.898Z,8.94
2023-02-02T13:08:57.881Z,9.07
2023-02-02T13:11:56.133Z,8.88
2023-02-02T13:14:37.373Z,8.86
2023-02-02T13:17:51.379Z,9.04
2023-02-02T13:20:47.631Z,9.00
2023-02-02T13:23:39.004Z,9.01
2023-02-02T13:26:35.064Z,8.90
2023-02-02T13:29:21.955Z,9.35
2023-02-02T13:31:55.296Z,9.46
2023-02-02T13:34:29.338Z,9.48
2023-02-02T13:37:02.785Z,9.14
2023-02-02T13:39:47.807Z,9.04
2023-02-02T13:42:43.822Z,9.21
2023-02-02T13:45:31.372Z,9.28
2023-02-02T13:48:08.614Z,9.17
2023-02-02T13:50:44.204Z,9.19
2023-02-02T13:53:54.962Z,9.08
2023-02-02T13:56:40.478Z,9.31
2023-02-02T13:59:14.619Z,9.05
2023-02-02T14:01:46.697Z,9.03
2023-02-02T14:04:25.356Z,8.99
2023-02-02T14:06:57.490Z,8.83
2023-02-02T14:09:27.303Z,9.45
2023-02-02T14:12:03.112Z,8.92
2023-02-02T14:14:33.274Z,9.14
2023-02-02T14:17:13.927Z,9.25
2023-02-02T14:19:42.125Z,9.02
2023-02-02T14:22:08.848Z,8.76
2023-02-02T14:24:35.388Z,8.65
2023-02-02T14:27:28.410Z,8.78
2023-02-02T14:29:54.959Z,8.99
2023-02-02T14:32:30.794Z,8.70
2023-02-02T14:34:59.457Z,9.10
2023-02-02T14:37:29.002Z,9.37
2023-02-02T14:40:06.347Z,9.23
2023-02-02T14:43:25.258Z,9.69
2023-02-02T14:46:13.874Z,9.42
2023-02-02T14:48:42.291Z,9.00
2023-02-02T14:51:18.696Z,8.93
2023-02-02T14:53:51.091Z,9.06
2023-02-02T14:56:18.102Z,9.60
2023-02-02T14:58:46.801Z,9.02
2023-02-02T15:01:23.013Z,9.31
2023-02-02T15:04:17.837Z,9.25
2023-02-02T15:06:44.662Z,8.74
2023-02-02T15:09:20.451Z,8.92
2023-02-02T15:12:01.668Z,8.94
2023-02-02T15:14:34.336Z,9.03
2023-02-02T15:17:12.564Z,8.75
2023-02-02T15:19:42.283Z,9.14
2023-02-02T15:22:21.222Z,8.85
2023-02-02T15:24:48.556Z,9.03
2023-02-02T15:27:19.787Z,9.33
2023-02-02T15:29:49.719Z,9.17
2023-02-02T15:32:22.947Z,9.04
2023-02-02T15:34:53.194Z,8.98
2023-02-02T15:37:22.948Z,9.20
2023-02-02T15:39:52.849Z,8.96
2023-02-02T15:42:41.730Z,9.22
2023-02-02T15:45:29.067Z,8.68
2023-02-02T15:47:57.303Z,8.77
2023-02-02T15:50:23.978Z,8.58
2023-02-02T15:52:52.008Z,8.81
2023-02-02T15:55:23.645Z,9.26
2023-02-02T15:57:54.370Z,9.15
2023-02-02T16:00:38.114Z,9.21
2023-02-02T16:03:07.652Z,8.90
2023-02-02T16:05:37.195Z,8.76
2023-02-02T16:08:19.054Z,8.67
2023-02-02T16:10:48.157Z,8.93
2023-02-02T16:13:27.984Z,8.83
2023-02-02T16:15:56.973Z,8.87
2023-02-02T16:18:23.538Z,8.81
2023-02-02T16:20:51.500Z,9.26
2023-02-02T16:23:23.875Z,8.79
2023-02-02T16:25:52.672Z,8.90
2023-02-02T16:28:21.907Z,9.07
2023-02-02T16:30:48.800Z,8.86
2023-02-02T16:33:33.705Z,8.90
2023-02-02T16:36:00.709Z,8.98
2023-02-02T16:38:37.615Z,8.96
2023-02-02T16:41:14.229Z,9.10
2023-02-02T16:43:42.051Z,9.09
2023-02-02T16:46:15.344Z,9.25
2023-02-02T16:48:59.921Z,9.07
2023-02-02T16:51:33.943Z,8.75
2023-02-02T16:54:06.956Z,9.09
2023-02-02T16:56:36.545Z,8.59
2023-02-02T16:59:23.077Z,8.81
2023-02-02T17:01:52.667Z,8.99
2023-02-02T17:04:24.867Z,8.90
2023-02-02T17:06:53.410Z,8.86
2023-02-02T17:09:34.021Z,8.82
2023-02-02T17:12:16.790Z,8.95
2023-02-02T17:15:00.308Z,8.66
2023-02-02T17:17:27.550Z,8.77
2023-02-02T17:19:54.164Z,8.95
2023-02-02T17:22:23.149Z,9.05
2023-02-02T17:24:51.481Z,8.80
2023-02-02T17:27:27.085Z,9.01
2023-02-02T17:29:54.306Z,8.71
2023-02-02T17:32:21.023Z,8.79
2023-02-02T17:34:47.624Z,8.40
2023-02-02T17:37:14.213Z,8.75
2023-02-02T17:39:40.720Z,8.84
2023-02-02T17:42:21.016Z,8.91
2023-02-02T17:44:47.963Z,9.09
2023-02-02T17:47:14.555Z,9.32
2023-02-02T17:49:41.117Z,9.05
2023-02-02T17:52:09.972Z,9.02
2023-02-02T17:54:36.533Z,8.85
2023-02-02T17:57:03.420Z,9.44
2023-02-02T17:59:30.335Z,9.11
2023-02-02T18:01:57.837Z,8.98
2023-02-02T18:04:26.303Z,8.33
2023-02-02T18:06:52.898Z,8.81
2023-02-02T18:09:19.470Z,9.00
2023-02-02T18:11:48.281Z,9.03
2023-02-02T18:14:15.158Z,9.02
2023-02-02T18:16:41.731Z,8.91
2023-02-02T18:19:08.695Z,8.72
2023-02-02T18:21:35.449Z,9.04
2023-02-02T18:24:02.245Z,8.79
2023-02-02T18:26:28.768Z,8.84
2023-02-02T18:28:55.305Z,8.72
2023-02-02T18:31:24.025Z,8.92
2023-02-02T18:33:51.087Z,8.83
2023-02-02T18:36:20.619Z,8.79
2023-02-02T18:38:48.322Z,9.11
2023-02-02T18:41:16.512Z,8.89
2023-02-02T18:43:44.643Z,8.86
2023-02-02T18:46:16.425Z,9.20
2023-02-02T18:48:43.383Z,8.68
2023-02-02T18:51:18.753Z,8.84
2023-02-02T18:53:46.453Z,8.99
2023-02-02T18:56:14.696Z,8.94
2023-02-02T18:58:41.363Z,8.72
2023-02-02T19:01:17.071Z,8.50
2023-02-02T19:03:48.431Z,9.01
2023-02-02T19:06:33.837Z,8.73
2023-02-02T19:09:03.780Z,8.75
2023-02-02T19:11:49.532Z,9.29
2023-02-02T19:14:18.227Z,9.19
2023-02-02T19:16:46.992Z,9.16
2023-02-02T19:19:25.554Z,8.80
2023-02-02T19:21:55.965Z,9.30
2023-02-02T19:24:24.253Z,8.86
2023-02-02T19:26:50.931Z,9.43
2023-02-02T19:29:21.095Z,9.33
2023-02-02T19:32:00.651Z,9.22
2023-02-02T19:34:27.231Z,9.40
2023-02-02T19:36:53.867Z,9.05
2023-02-02T19:39:30.871Z,8.98
2023-02-02T19:41:59.816Z,9.28
2023-02-02T19:44:30.225Z,9.09
2023-02-02T19:46:57.601Z,9.08
2023-02-02T19:49:30.027Z,9.13
2023-02-02T19:51:58.497Z,9.00
2023-02-02T19:54:47.984Z,8.95
2023-02-02T19:57:22.873Z,8.95
2023-02-02T19:59:50.693Z,8.82
2023-02-02T20:02:54.401Z,9.03
2023-02-02T20:05:28.157Z,8.88
2023-02-02T20:08:19.169Z,9.30
2023-02-02T20:10:46.882Z,8.85
2023-02-02T20:13:26.040Z,9.29
2023-02-02T20:16:03.534Z,8.99
2023-02-02T20:18:39.017Z,9.16
2023-02-02T20:21:16.797Z,9.08
2023-02-02T20:23:45.823Z,9.12
2023-02-02T20:26:33.836Z,9.26
2023-02-02T20:29:22.375Z,9.70
2023-02-02T20:31:50.861Z,9.62
2023-02-02T20:34:23.426Z,9.69
2023-02-02T20:36:51.168Z,9.26
2023-02-02T20:39:36.098Z,9.46
2023-02-02T20:42:04.308Z,9.39
2023-02-02T20:44:33.082Z,9.34
2023-02-02T20:47:01.148Z,9.18
2023-02-02T20:49:31.651Z,9.26
2023-02-02T20:52:00.798Z,9.24
2023-02-02T20:54:27.484Z,9.31
2023-02-02T20:56:54.452Z,9.58
2023-02-02T20:59:21.090Z,9.45
2023-02-02T21:01:49.951Z,9.44
2023-02-02T21:04:17.640Z,9.16
2023-02-02T21:06:44.415Z,9.30
2023-02-02T21:09:11.616Z,9.39
2023-02-02T21:11:38.425Z,9.39
2023-02-02T21:14:05.420Z,9.28
2023-02-02T21:16:32.529Z,9.19
2023-02-02T21:19:01.732Z,9.32
2023-02-02T21:21:28.403Z,9.01
2023-02-02T21:23:56.245Z,9.44
2023-02-02T21:26:26.981Z,9.46
2023-02-02T21:28:53.605Z,9.27
2023-02-02T21:31:20.443Z,9.38
2023-02-02T21:33:48.550Z,9.43
2023-02-02T21:36:29.121Z,9.19
2023-02-02T21:39:11.554Z,9.66
2023-02-02T21:41:38.041Z,9.38
2023-02-02T21:44:12.626Z,8.99
2023-02-02T21:46:39.295Z,9.45
2023-02-02T21:49:13.610Z,9.35
2023-02-02T21:51:40.167Z,9.31
2023-02-02T21:54:24.596Z,9.46
2023-02-02T21:56:52.493Z,9.24
2023-02-02T21:59:21.700Z,9.35
2023-02-02T22:01:49.651Z,9.31
2023-02-02T22:04:20.864Z,9.18
2023-02-02T22:07:12.066Z,9.44
2023-02-02T22:09:40.119Z,9.31
2023-02-02T22:12:23.450Z,9.52
2023-02-02T22:14:52.225Z,9.48
2023-02-02T22:17:38.863Z,9.37
2023-02-02T22:20:30.148Z,9.28
2023-02-02T22:22:56.668Z,9.35
2023-02-02T22:25:33.343Z,9.31
2023-02-02T22:28:10.655Z,9.36
2023-02-02T22:30:39.987Z,9.26
2023-02-02T22:33:09.177Z,9.55
2023-02-02T22:35:35.764Z,9.74
2023-02-02T22:38:02.822Z,9.42
2023-02-02T22:40:29.721Z,9.40
2023-02-02T22:43:00.779Z,9.59
2023-02-02T22:45:27.324Z,9.59
2023-02-02T22:47:54.422Z,9.55
2023-02-02T22:50:23.376Z,9.39
2023-02-02T22:52:50.437Z,9.51
2023-02-02T22:55:17.439Z,9.82
2023-02-02T22:57:44.256Z,9.37
2023-02-02T23:00:17.016Z,9.64
2023-02-02T23:02:43.839Z,9.58
2023-02-02T23:05:12.693Z,9.71
2023-02-02T23:07:39.746Z,9.95
2023-02-02T23:10:07.503Z,9.89
2023-02-02T23:12:34.213Z,9.63
2023-02-02T23:15:01.042Z,9.72
2023-02-02T23:17:27.622Z,9.80
2023-02-02T23:19:54.394Z,9.46
2023-02-02T23:22:20.968Z,9.28
2023-02-02T23:24:47.568Z,9.85
2023-02-02T23:27:14.331Z,9.85
2023-02-02T23:29:40.849Z,9.81
2023-02-02T23:32:07.382Z,9.64
2023-02-02T23:34:33.942Z,9.99
2023-02-02T23:37:00.511Z,9.73
2023-02-02T23:39:27.101Z,9.64
2023-02-02T23:41:53.610Z,9.68
2023-02-02T23:44:20.275Z,9.83
2023-02-02T23:46:47.119Z,9.70
2023-02-02T23:49:13.746Z,9.54
2023-02-02T23:51:40.352Z,9.59
2023-02-02T23:54:06.954Z,9.90
2023-02-02T23:56:33.570Z,9.91
2023-02-02T23:59:00.037Z,9.83
